Latest Weather Observations for Mount Buller

IDV60801

Issued at 10:32 am EDT Monday 27 February 2017 (issued every 30 minutes, with the page automatically refreshed every 10 minutes)

About weather observations | Map of weather stations | Latest weather observations for VIC | Other Formats
Station Details ID: 083024 Name: MOUNT BULLER Lat: -37.15 Lon: 146.44 Height: 1707.0 m
Data from the previous 72 hours. | See also: Recent months at Mount Buller
Date/Time
EDT
Temp
°C
App
Temp
°C
Dew
Point
°C
Rel
Hum
%
Delta-T
°C
Wind Press
QNH
hPa
Press
MSL
hPa
Rain since
9am
mm
Dir  Spd
km/h
Gust
km/h
Spd
kts
Gust
kts
27/10:30am 14.8 14.3 9.2 69 3.1 NNW 2 6 1 3 - - 0.0
27/10:00am 14.1 13.0 8.3 68 3.2 NW 4 11 2 6 - - 0.0
27/09:30am 13.1 11.4 7.5 69 3.0 NNW 6 9 3 5 - - 0.0
27/09:00am 13.1 11.6 8.4 73 2.6 N 6 9 3 5 - - 0.0
27/08:30am 14.0 13.2 8.0 67 3.3 S 2 7 1 4 - - 0.0
27/08:00am 12.9 11.4 6.9 67 3.2 SW 4 6 2 3 - - 0.0
27/07:30am 12.0 10.3 6.1 67 3.1 SW 4 6 2 3 - - 0.0
27/07:00am 11.6 10.0 6.3 70 2.8 WSW 4 6 2 3 - - 0.0
27/06:30am 11.8 9.9 6.9 72 2.6 SW 6 6 3 3 - - 0.0
27/06:00am 11.9 9.9 6.2 68 3.0 SSW 6 7 3 4 - - 0.0
27/05:30am 12.1 10.1 6.2 67 3.1 SSW 6 6 3 3 - - 0.0
27/05:00am 12.1 9.8 5.9 66 3.2 SSW 7 9 4 5 - - 0.0
27/04:30am 11.9 9.2 5.8 66 3.1 SW 9 9 5 5 - - 0.0
27/04:00am 12.3 10.0 5.9 65 3.3 WSW 7 9 4 5 - - 0.0
27/03:30am 10.5 7.9 5.9 73 2.4 WNW 9 13 5 7 - - 0.0
27/03:00am 11.5 9.4 5.8 68 2.9 WNW 6 7 3 4 - - 0.0
27/02:30am 11.8 9.7 5.9 67 3.0 W 6 9 3 5 - - 0.0
27/02:00am 11.7 9.4 5.6 66 3.1 WSW 7 9 4 5 - - 0.0
27/01:30am 11.8 9.2 6.1 68 2.9 WSW 9 11 5 6 - - 0.0
27/01:00am 10.9 8.6 5.9 71 2.6 W 7 9 4 5 - - 0.0
27/12:30am 10.8 8.5 5.6 70 2.6 WNW 7 7 4 4 - - 0.0
27/12:00am 12.1 10.5 6.2 67 3.1 WNW 4 6 2 3 - - 0.0
 
Date/Time
EDT
Temp
°C
App
Temp
°C
Dew
Point
°C
Rel
Hum
%
Delta-T
°C
Wind Press
QNH
hPa
Press
MSL
hPa
Rain since
9am
mm
Dir  Spd
km/h
Gust
km/h
Spd
kts
Gust
kts
26/11:30pm 12.2 10.6 6.5 68 3.0 WNW 4 6 2 3 - - 0.0
26/11:00pm 12.1 10.6 7.0 71 2.7 NW 4 6 2 3 - - 0.0
26/10:30pm 11.7 9.9 7.0 73 2.5 NW 6 6 3 3 - - 0.0
26/10:00pm 12.2 10.8 7.1 71 2.7 NW 4 6 2 3 - - 0.0
26/09:30pm 12.6 11.4 8.1 74 2.4 ENE 4 7 2 4 - - 0.0
26/09:00pm 12.8 11.3 8.3 74 2.4 E 6 11 3 6 - - 0.0
26/08:30pm 13.2 11.5 7.6 69 3.0 NNE 6 7 3 4 - - 0.0
26/08:00pm 13.6 12.9 8.4 71 2.8 S 2 4 1 2 - - 0.0
26/07:30pm 14.0 13.3 8.4 69 3.1 S 2 4 1 2 - - 0.0
26/07:00pm 14.8 14.1 8.7 67 3.4 SSE 2 6 1 3 - - 0.0
26/06:30pm 15.5 14.1 7.3 58 4.4 NW 4 7 2 4 - - 0.0
26/06:00pm 14.7 13.0 7.5 62 3.9 W 6 9 3 5 - - 0.0
26/05:30pm 15.6 13.8 8.1 61 4.1 NNW 7 11 4 6 - - 0.0
26/05:00pm 17.3 16.0 9.2 59 4.6 NNW 6 9 3 5 - - 0.0
26/04:30pm 16.1 15.0 8.6 61 4.2 WNW 4 9 2 5 - - 0.0
26/04:00pm 14.3 13.4 7.6 64 3.6 N 2 4 1 2 - - 0.0
26/03:30pm 14.4 13.4 7.5 63 3.7 NNE 2 6 1 3 - - 0.0
26/03:00pm 14.5 12.8 8.5 67 3.3 NW 7 13 4 7 - - 0.0
26/02:30pm 14.5 13.1 8.7 68 3.2 NW 6 9 3 5 - - 0.0
26/02:00pm 13.8 12.2 8.2 69 3.1 NW 6 13 3 7 - - 0.0
26/01:30pm 13.4 11.4 8.5 72 2.7 NW 9 17 5 9 - - 0.0
26/01:00pm 12.8 10.4 8.5 75 2.4 NNW 11 19 6 10 - - 0.0
26/12:30pm 14.4 11.9 9.6 73 2.7 NW 13 20 7 11 - - 0.0
26/12:00pm 11.7 8.9 8.6 81 1.7 NW 13 20 7 11 - - 0.0
26/11:30am 11.4 9.5 9.0 85 1.3 NW 9 13 5 7 - - 0.0
26/11:00am 13.8 11.7 9.8 77 2.3 N 11 17 6 9 - - 0.0
26/10:30am 13.3 11.7 10.1 81 1.8 N 9 19 5 10 - - 0.0
26/10:00am 11.3 9.2 8.2 81 1.7 NNE 9 13 5 7 - - 0.0
26/09:30am 11.9 10.1 8.0 77 2.1 NNW 7 17 4 9 - - 0.0
26/09:00am 11.5 9.5 8.5 82 1.6 NNW 9 15 5 8 - - 0.0
26/08:30am 10.5 9.0 8.4 87 1.1 NNW 6 6 3 3 - - 0.0
26/08:00am 10.3 8.7 8.2 87 1.1 NNW 6 7 3 4 - - 0.0
26/07:30am 9.3 7.7 8.1 92 0.6 WNW 6 9 3 5 - - 0.0
26/07:00am 8.7 6.7 7.3 91 0.7 NW 7 11 4 6 - - 0.0
26/06:30am 8.8 6.9 7.4 91 0.7 NNW 7 7 4 4 - - 0.0
26/06:00am 9.0 7.3 7.5 90 0.8 NNW 6 7 3 4 - - 0.0
26/05:30am 9.5 7.9 7.8 89 0.9 NNW 6 7 3 4 - - 0.0
26/05:00am 9.4 7.7 7.5 88 1.0 NW 6 7 3 4 - - 0.0
26/04:30am 10.0 8.4 7.9 87 1.1 NNW 6 7 3 4 - - 0.0
26/04:00am 9.8 7.6 7.9 88 1.0 N 9 13 5 7 - - 0.0
26/03:30am 9.5 6.9 7.6 88 1.0 N 11 22 6 12 - - 0.0
26/03:00am 9.6 6.5 7.2 85 1.3 NNE 13 17 7 9 - - 0.0
26/02:30am 9.5 5.5 6.8 83 1.4 NNE 17 19 9 10 - - 0.0
26/02:00am 9.4 6.6 6.8 84 1.3 NNE 11 13 6 7 - - 0.0
26/01:30am 9.3 7.4 6.7 84 1.3 N 6 7 3 4 - - 0.0
26/01:00am 8.9 6.3 6.3 84 1.3 NNE 9 11 5 6 - - 0.0
26/12:30am 8.8 6.2 6.3 84 1.3 NE 9 11 5 6 - - 0.0
26/12:00am 9.1 7.0 6.5 84 1.3 ENE 7 13 4 7 - - 0.0
 
Date/Time
EDT
Temp
°C
App
Temp
°C
Dew
Point
°C
Rel
Hum
%
Delta-T
°C
Wind Press
QNH
hPa
Press
MSL
hPa
Rain since
9am
mm
Dir  Spd
km/h
Gust
km/h
Spd
kts
Gust
kts
25/11:30pm 10.4 8.5 6.5 77 2.0 ENE 6 7 3 4 - - 0.0
25/11:00pm 10.1 8.5 6.3 77 2.0 ENE 4 6 2 3 - - 0.0
25/10:30pm 10.1 7.8 5.7 74 2.2 ENE 7 9 4 5 - - 0.0
25/10:00pm 9.7 7.5 6.1 78 1.8 ENE 7 11 4 6 - - 0.0
25/09:30pm 9.8 7.7 6.7 81 1.6 ENE 7 11 4 6 - - 0.0
25/09:00pm 9.8 7.8 6.9 82 1.5 E 7 11 4 6 - - 0.0
25/08:30pm 9.9 8.2 7.5 85 1.3 E 6 11 3 6 - - 0.0
25/08:00pm 10.1 8.1 7.3 83 1.5 ESE 7 13 4 7 - - 0.0
25/07:30pm 11.0 8.8 7.9 81 1.7 ESE 9 17 5 9 - - 0.0
25/07:00pm 12.0 11.0 8.8 81 1.8 SSE 4 9 2 5 - - 0.0
25/06:30pm 12.7 11.3 9.0 78 2.0 ENE 6 13 3 7 - - 0.0
25/06:00pm 13.0 12.2 9.6 80 1.9 NNW 4 9 2 5 - - 0.0
25/05:30pm 13.1 12.3 9.7 80 1.9 NW 4 7 2 4 - - 0.0
25/05:00pm 12.5 11.1 9.5 82 1.7 NE 7 11 4 6 - - 0.0
25/04:30pm 12.8 11.0 9.6 81 1.8 NE 9 13 5 7 - - 0.0
25/04:00pm 13.3 12.1 9.5 78 2.1 NNW 6 11 3 6 - - 0.0
25/03:30pm 13.0 12.5 9.3 78 2.1 WNW 2 4 1 2 - - 0.0
25/03:00pm 13.9 13.0 9.1 73 2.7 NNW 4 13 2 7 - - 0.0
25/02:30pm 12.5 11.2 9.3 81 1.8 NNW 6 9 3 5 - - 0.0
25/02:00pm 12.3 11.6 8.6 78 2.0 SSE 2 6 1 3 - - 0.0
25/01:30pm 12.3 11.1 8.2 76 2.2 NE 4 11 2 6 - - 0.0
25/01:00pm 12.0 10.4 8.1 77 2.1 NE 6 13 3 7 - - 0.0
25/12:30pm 12.3 10.8 9.0 80 1.8 N 7 20 4 11 - - 0.0
25/12:00pm 12.3 10.8 8.4 77 2.1 NE 6 11 3 6 - - 0.0
25/11:30am 12.6 10.5 8.3 75 2.3 NNE 9 17 5 9 - - 0.0
25/11:00am 12.3 10.4 7.6 73 2.5 N 7 11 4 6 - - 0.0
25/10:30am 11.6 9.1 6.7 72 2.6 N 9 15 5 8 - - 0.0
25/10:00am 11.4 8.2 6.7 73 2.5 N 13 19 7 10 - - 0.0
25/09:30am 11.5 8.2 6.2 70 2.7 N 13 15 7 8 - - 0.0
25/09:00am 11.2 8.1 5.7 69 2.8 N 11 15 6 8 - - 0.0
25/08:30am 10.5 6.7 4.0 64 3.2 N 13 17 7 9 - - 0.0
25/08:00am 10.2 6.0 1.8 56 3.9 NNW 13 20 7 11 - - 0.0
25/07:30am 9.4 4.8 -0.8 49 4.5 NNW 13 17 7 9 - - 0.0
25/07:00am 9.6 4.3 -0.9 48 4.6 NNW 17 20 9 11 - - 0.0
25/06:30am 9.4 3.8 -2.5 43 5.0 NNW 17 20 9 11 - - 0.0
25/06:00am 10.6 6.6 -8.1 26 7.0 NNW 6 6 3 3 - - 0.0
25/05:30am 10.1 5.9 -8.0 27 6.8 NNW 7 9 4 5 - - 0.0
25/05:00am 10.6 6.3 -8.6 25 7.1 NNW 7 9 4 5 - - 0.0
25/04:30am 11.6 7.2 -10.6 20 7.9 NNW 7 9 4 5 - - 0.0
25/04:00am 11.9 7.6 -11.6 18 8.3 NW 6 7 3 4 - - 0.0
25/03:30am 12.2 7.7 -12.1 17 8.5 NNW 7 9 4 5 - - 0.0
25/03:00am 13.0 8.6 -13.8 14 9.1 N 6 7 3 4 - - 0.0
25/02:30am 12.8 8.9 -11.6 17 8.7 NE 4 6 2 3 - - 0.0
25/02:00am 12.4 8.5 -10.5 19 8.3 E 4 6 2 3 - - 0.0
25/01:30am 12.3 7.6 -8.8 22 7.9 SE 9 15 5 8 - - 0.0
25/01:00am 10.5 5.0 -5.5 32 6.3 SSE 15 22 8 12 - - 0.0
25/12:30am 10.8 4.4 -4.8 33 6.3 SSE 20 30 11 16 - - 0.0
25/12:00am 10.3 4.9 -4.1 36 5.9 SSE 15 22 8 12 - - 0.0
 
Date/Time
EDT
Temp
°C
App
Temp
°C
Dew
Point
°C
Rel
Hum
%
Delta-T
°C
Wind Press
QNH
hPa
Press
MSL
hPa
Rain since
9am
mm
Dir  Spd
km/h
Gust
km/h
Spd
kts
Gust
kts
24/11:30pm 10.1 4.1 -3.2 39 5.5 SSE 19 30 10 16 - - 0.0
24/11:00pm 9.3 3.0 -0.8 49 4.4 SSE 22 32 12 17 - - 0.0
24/10:30pm 9.2 2.2 -0.4 51 4.2 SSE 26 33 14 18 - - 0.0
24/10:00pm 9.4 2.1 -0.2 51 4.3 SSE 28 35 15 19 - - 0.0
24/09:30pm 9.8 3.4 1.2 55 3.9 S 24 30 13 16 - - 0.0
24/09:00pm 9.3 3.9 2.6 63 3.2 SSE 20 26 11 14 - - 0.0
24/08:30pm 9.5 4.3 5.5 76 2.0 S 22 26 12 14 - - 0.0
24/08:00pm 9.3 5.3 6.7 84 1.3 S 17 19 9 10 - - 0.0
24/07:30pm 10.8 7.0 7.5 80 1.7 SSW 17 22 9 12 - - 0.0
24/07:00pm 11.7 8.0 8.0 78 2.0 SSW 17 20 9 11 - - 0.0
24/06:30pm 12.9 9.4 8.8 76 2.3 S 17 19 9 10 - - 0.0
24/06:00pm 14.3 11.7 9.3 72 2.8 S 13 20 7 11 - - 0.0
24/05:30pm 14.7 12.3 8.6 67 3.4 S 11 17 6 9 - - 0.0
24/05:00pm 15.7 13.7 8.7 63 3.9 S 9 15 5 8 - - 0.0
24/04:30pm 16.2 14.2 8.7 61 4.2 S 9 17 5 9 - - 0.0
24/04:00pm 16.0 13.3 7.5 57 4.6 SSW 11 19 6 10 - - 0.0
24/03:30pm 16.2 13.4 6.9 54 5.0 SSW 11 19 6 10 - - 0.0
24/03:00pm 16.1 13.5 6.3 52 5.2 SW 9 17 5 9 - - 0.0
24/02:30pm 15.7 13.2 4.7 48 5.7 SW 7 15 4 8 - - 0.0
24/02:00pm 15.5 12.4 3.6 45 6.0 SW 9 17 5 9 - - 0.0
24/01:30pm 15.5 13.3 5.1 50 5.4 SW 6 9 3 5 - - 0.0
24/01:00pm 16.3 14.4 5.0 47 5.9 WSW 4 9 2 5 - - 0.0
24/12:30pm 16.1 11.5 -4.4 24 8.8 W 11 19 6 10 - - 0.0
24/12:00pm 15.8 11.1 -5.3 23 8.9 WSW 11 17 6 9 - - 0.0
24/11:30am 15.8 11.5 -1.7 30 7.9 W 11 19 6 10 - - 0.0
24/11:00am 16.1 10.9 -6.2 21 9.2 W 13 19 7 10 - - 0.0

Other Formats:

Comma delimited format used in spreadsheet applications
http://www.bom.gov.au/fwo/IDV60801/IDV60801.94894.axf

JavaScript Object Notation format (JSON) in row-major order
http://www.bom.gov.au/fwo/IDV60801/IDV60801.94894.json